Time;durP1;ratioP1;P1;durP2;ratioP2;P2;SDS_P1;SDS_P2;PMS_P1;PMS_P2;Temp;Humidity;BMP_temperature;BMP_pressure;BME280_temperature;BME280_humidity;BME280_pressure;Samples;Min_cycle;Max_cycle;Signal;HPM_P1;HPM_P2
2021/12/15 00:01:54;;;;;;;48.10;15.95;;;;;;;;;;4968311;28;20524;-73
2021/12/15 00:04:22;;;;;;;36.13;14.45;;;;;;;;;;4974220;28;20053;-73
2021/12/15 00:06:50;;;;;;;37.08;15.10;;;;;;;;;;4954117;28;20054;-74
2021/12/15 00:09:17;;;;;;;33.60;14.32;;;;;;;;;;4950261;28;20455;-74
2021/12/15 00:11:45;;;;;;;37.17;14.77;;;;;;;;;;4978454;28;20053;-74
2021/12/15 00:14:15;;;;;;;39.53;15.75;;;;;;;;;;4972219;28;20091;-74
2021/12/15 00:16:44;;;;;;;34.15;15.25;;;;;;;;;;4970587;28;20463;-73
2021/12/15 00:19:12;;;;;;;32.28;15.50;;;;;;;;;;4953140;28;20050;-73
2021/12/15 00:21:39;;;;;;;32.05;14.43;;;;;;;;;;4970192;28;20047;-74
2021/12/15 00:24:08;;;;;;;36.95;15.85;;;;;;;;;;4970941;28;20043;-75
2021/12/15 00:26:36;;;;;;;38.03;15.48;;;;;;;;;;4944362;28;20122;-74
2021/12/15 00:29:05;;;;;;;34.60;15.18;;;;;;;;;;4942675;28;20055;-74
2021/12/15 00:31:33;;;;;;;30.30;14.02;;;;;;;;;;4974404;28;20045;-74
2021/12/15 00:34:03;;;;;;;34.58;15.60;;;;;;;;;;4976066;28;20046;-74
2021/12/15 00:36:30;;;;;;;35.50;14.30;;;;;;;;;;4955866;28;20039;-74
2021/12/15 00:39:00;;;;;;;31.15;14.55;;;;;;;;;;4995720;28;20050;-74
2021/12/15 00:41:28;;;;;;;33.72;16.00;;;;;;;;;;4962449;28;20043;-74
2021/12/15 00:43:56;;;;;;;37.83;15.27;;;;;;;;;;4970360;28;20355;-74
2021/12/15 00:46:24;;;;;;;32.58;14.52;;;;;;;;;;4970248;28;20182;-73
2021/12/15 00:48:52;;;;;;;33.40;14.93;;;;;;;;;;4954439;28;20042;-74
2021/12/15 00:51:20;;;;;;;35.50;15.23;;;;;;;;;;4971151;28;20046;-74
2021/12/15 00:54:12;;;;;;;37.35;15.35;;;;;;;;;;4970638;28;20035;-75
2021/12/15 00:56:40;;;;;;;34.42;14.75;;;;;;;;;;4953377;28;20047;-74
2021/12/15 00:59:09;;;;;;;43.92;15.88;;;;;;;;;;4937461;28;20447;-75
2021/12/15 01:01:39;;;;;;;32.83;14.95;;;;;;;;;;4950392;28;20039;-73
2021/12/15 01:04:07;;;;;;;41.80;15.30;;;;;;;;;;4964482;28;20060;-73
2021/12/15 01:06:38;;;;;;;41.67;16.55;;;;;;;;;;4952199;28;20494;-74
2021/12/15 01:09:08;;;;;;;42.33;15.63;;;;;;;;;;4949349;28;20067;-72
2021/12/15 01:19:52;;;;;;;44.58;15.82;;;;;;;;;;4972652;28;20506;-73
2021/12/15 01:22:29;;;;;;;43.58;14.93;;;;;;;;;;4981822;28;20047;-74
2021/12/15 01:24:58;;;;;;;37.35;15.57;;;;;;;;;;4994395;28;20042;-74
2021/12/15 01:27:26;;;;;;;40.40;15.88;;;;;;;;;;4992524;28;20105;-73
2021/12/15 01:29:53;;;;;;;41.47;15.63;;;;;;;;;;4967251;28;20031;-72
2021/12/15 01:32:21;;;;;;;35.67;14.25;;;;;;;;;;4957672;28;20436;-73
2021/12/15 01:34:50;;;;;;;34.83;14.98;;;;;;;;;;4954121;28;20039;-73
2021/12/15 01:37:17;;;;;;;38.65;15.15;;;;;;;;;;4958458;28;20307;-72
2021/12/15 01:39:46;;;;;;;47.58;15.63;;;;;;;;;;4954570;28;20050;-72
2021/12/15 01:42:13;;;;;;;47.63;16.60;;;;;;;;;;4953519;28;20047;-73
2021/12/15 01:47:27;;;;;;;47.67;16.45;;;;;;;;;;4982038;28;20050;-74
2021/12/15 01:49:55;;;;;;;30.52;15.10;;;;;;;;;;4967044;28;20452;-73
2021/12/15 01:52:31;;;;;;;38.13;15.25;;;;;;;;;;4936825;28;20097;-73
2021/12/15 01:55:02;;;;;;;38.78;14.93;;;;;;;;;;4971463;28;20121;-73
2021/12/15 01:57:30;;;;;;;31.05;13.43;;;;;;;;;;4980845;28;20434;-73
2021/12/15 01:59:59;;;;;;;35.60;14.05;;;;;;;;;;4955179;28;20061;-73
2021/12/15 02:02:27;;;;;;;27.70;12.68;;;;;;;;;;4969315;28;20051;-73
2021/12/15 02:04:55;;;;;;;25.55;12.80;;;;;;;;;;4940700;28;20053;-75
2021/12/15 02:07:24;;;;;;;28.52;12.88;;;;;;;;;;4967256;28;20113;-73
2021/12/15 02:12:24;;;;;;;35.20;14.18;;;;;;;;;;4970242;28;20487;-74
2021/12/15 02:14:52;;;;;;;31.33;14.18;;;;;;;;;;4962174;28;20054;-74
2021/12/15 02:17:20;;;;;;;35.45;14.82;;;;;;;;;;4942661;28;20483;-74
2021/12/15 02:19:48;;;;;;;30.77;13.90;;;;;;;;;;4953314;28;20046;-74
2021/12/15 02:22:16;;;;;;;38.60;14.18;;;;;;;;;;4970912;28;20063;-74
2021/12/15 02:24:47;;;;;;;45.97;15.60;;;;;;;;;;4949471;28;20057;-74
2021/12/15 02:27:15;;;;;;;42.08;15.38;;;;;;;;;;4962599;28;20063;-74
2021/12/15 02:29:45;;;;;;;40.67;15.30;;;;;;;;;;4968872;28;20179;-74
2021/12/15 02:37:04;;;;;;;48.05;16.77;;;;;;;;;;4964990;28;20046;-73
2021/12/15 02:37:44;;;;;;;35.22;15.38;;;;;;;;;;4969619;28;20436;-73
2021/12/15 02:40:15;;;;;;;38.83;14.40;;;;;;;;;;4983587;28;20052;-73
2021/12/15 02:42:45;;;;;;;33.72;14.43;;;;;;;;;;4974742;28;20035;-74
2021/12/15 02:45:15;;;;;;;35.30;15.40;;;;;;;;;;4978103;28;20123;-73
2021/12/15 02:47:42;;;;;;;31.20;14.25;;;;;;;;;;4976953;28;20119;-74
2021/12/15 02:50:13;;;;;;;42.90;15.98;;;;;;;;;;4984684;28;20414;-73
2021/12/15 02:52:41;;;;;;;37.47;15.35;;;;;;;;;;4968024;28;20071;-73
2021/12/15 02:55:10;;;;;;;38.20;14.40;;;;;;;;;;4962964;28;20039;-73
2021/12/15 02:57:38;;;;;;;40.17;15.13;;;;;;;;;;4973463;28;20043;-73
2021/12/15 03:00:18;;;;;;;35.13;15.07;;;;;;;;;;4970963;28;20046;-73
2021/12/15 03:05:43;;;;;;;34.85;14.65;;;;;;;;;;4969545;28;20110;-73
2021/12/15 03:08:19;;;;;;;34.53;13.95;;;;;;;;;;4977477;28;20349;-73
2021/12/15 03:16:20;;;;;;;31.73;13.77;;;;;;;;;;4967368;28;20035;-73
2021/12/15 03:18:48;;;;;;;31.02;13.60;;;;;;;;;;4961608;28;20047;-73
2021/12/15 03:21:21;;;;;;;36.03;14.68;;;;;;;;;;4974039;28;20038;-74
2021/12/15 03:23:53;;;;;;;32.92;14.65;;;;;;;;;;4980476;28;20070;-74
2021/12/15 03:26:22;;;;;;;;;;;;;;;;;;4960137;28;20113;-74
2021/12/15 03:34:49;;;;;;;35.58;13.40;;;;;;;;;;4989673;28;20069;-74
2021/12/15 03:37:25;;;;;;;25.98;13.00;;;;;;;;;;4967335;28;20043;-74
2021/12/15 03:40:10;;;;;;;29.98;14.52;;;;;;;;;;4993938;28;20609;-74
2021/12/15 03:42:41;;;;;;;31.70;15.77;;;;;;;;;;4993498;28;20042;-74
2021/12/15 03:45:10;;;;;;;32.17;15.05;;;;;;;;;;4979195;28;20039;-73
2021/12/15 03:47:39;;;;;;;45.15;15.40;;;;;;;;;;4991491;28;20043;-74
2021/12/15 03:50:08;;;;;;;31.90;14.88;;;;;;;;;;4944047;29;20074;-74
2021/12/15 03:52:35;;;;;;;35.38;15.75;;;;;;;;;;4955021;28;20106;-74
2021/12/15 03:55:04;;;;;;;39.47;15.02;;;;;;;;;;4919375;29;20438;-74
2021/12/15 03:57:32;;;;;;;36.85;15.55;;;;;;;;;;4916810;29;20619;-74
2021/12/15 04:00:00;;;;;;;31.65;14.95;;;;;;;;;;4916228;29;20067;-74
2021/12/15 04:02:27;;;;;;;46.15;16.48;;;;;;;;;;4930588;29;20051;-74
2021/12/15 04:04:55;;;;;;;44.90;15.77;;;;;;;;;;4931754;29;20142;-74
2021/12/15 04:07:23;;;;;;;37.58;15.63;;;;;;;;;;4928833;29;20103;-74
2021/12/15 04:09:51;;;;;;;42.17;16.15;;;;;;;;;;4929441;29;20048;-74
2021/12/15 04:12:18;;;;;;;37.05;15.48;;;;;;;;;;4929457;29;20138;-74
2021/12/15 04:14:56;;;;;;;53.95;17.75;;;;;;;;;;4923892;29;20114;-74
2021/12/15 04:17:29;;;;;;;43.50;16.20;;;;;;;;;;4940915;28;20047;-74
2021/12/15 04:19:59;;;;;;;47.42;16.05;;;;;;;;;;4920097;29;20107;-74
2021/12/15 04:22:26;;;;;;;53.10;17.13;;;;;;;;;;4979147;28;20054;-74
2021/12/15 04:24:54;;;;;;;41.25;15.02;;;;;;;;;;4952252;28;20105;-74
2021/12/15 04:27:22;;;;;;;36.22;15.57;;;;;;;;;;4981795;28;20101;-74
2021/12/15 04:29:52;;;;;;;69.30;18.63;;;;;;;;;;4951360;28;20117;-74
2021/12/15 04:32:28;;;;;;;41.10;14.40;;;;;;;;;;4972408;28;20128;-74
2021/12/15 04:34:55;;;;;;;36.08;14.73;;;;;;;;;;4978955;28;20400;-74
2021/12/15 04:37:23;;;;;;;30.10;14.73;;;;;;;;;;4974441;28;20042;-74
2021/12/15 04:39:51;;;;;;;35.97;14.63;;;;;;;;;;4979256;28;20067;-74
2021/12/15 04:42:20;;;;;;;48.10;17.58;;;;;;;;;;4982472;28;20462;-74
2021/12/15 04:44:49;;;;;;;45.83;15.43;;;;;;;;;;4946815;28;20377;-74
2021/12/15 04:47:16;;;;;;;31.83;14.02;;;;;;;;;;4973342;28;20054;-74
2021/12/15 04:49:47;;;;;;;48.10;16.00;;;;;;;;;;4969950;28;20050;-74
2021/12/15 04:52:15;;;;;;;31.87;14.53;;;;;;;;;;4962009;28;20090;-74
2021/12/15 04:54:43;;;;;;;22.95;12.40;;;;;;;;;;4951219;28;20440;-74
2021/12/15 04:57:11;;;;;;;35.55;14.77;;;;;;;;;;4974248;28;20042;-74
2021/12/15 04:59:39;;;;;;;34.63;15.40;;;;;;;;;;4969432;28;20431;-74
2021/12/15 05:02:07;;;;;;;52.72;16.48;;;;;;;;;;4997771;22;20042;-75
2021/12/15 05:04:35;;;;;;;36.60;14.80;;;;;;;;;;4999067;28;20100;-74
2021/12/15 05:07:03;;;;;;;51.33;15.88;;;;;;;;;;5007126;28;20452;-75
2021/12/15 05:09:31;;;;;;;39.28;14.63;;;;;;;;;;5008536;28;20072;-75
2021/12/15 05:11:58;;;;;;;34.42;13.77;;;;;;;;;;5009797;28;20058;-75
2021/12/15 05:14:26;;;;;;;41.50;15.05;;;;;;;;;;5007966;28;20088;-75
2021/12/15 05:16:54;;;;;;;40.45;14.57;;;;;;;;;;5012046;28;20108;-75
2021/12/15 05:19:21;;;;;;;48.42;17.17;;;;;;;;;;5010713;28;20072;-75
2021/12/15 05:21:51;;;;;;;36.03;14.85;;;;;;;;;;4992322;28;20320;-75
2021/12/15 05:24:30;;;;;;;43.97;16.27;;;;;;;;;;5004264;28;20080;-75
2021/12/15 05:27:02;;;;;;;32.42;13.73;;;;;;;;;;5002825;28;20061;-75
2021/12/15 05:29:29;;;;;;;36.80;14.35;;;;;;;;;;5009319;28;20042;-75
2021/12/15 05:31:57;;;;;;;36.20;14.32;;;;;;;;;;5005159;28;20058;-74
2021/12/15 05:34:25;;;;;;;49.35;15.38;;;;;;;;;;4988038;28;20042;-75
2021/12/15 05:36:54;;;;;;;37.42;15.10;;;;;;;;;;5003050;28;20069;-75
2021/12/15 05:39:22;;;;;;;40.67;14.20;;;;;;;;;;4988920;28;20050;-75
2021/12/15 05:41:50;;;;;;;33.70;14.38;;;;;;;;;;5000909;28;20064;-75
2021/12/15 05:44:17;;;;;;;40.33;15.32;;;;;;;;;;5007570;28;20077;-75
2021/12/15 05:46:45;;;;;;;29.65;13.73;;;;;;;;;;5003656;28;20034;-75
2021/12/15 05:49:12;;;;;;;33.00;14.13;;;;;;;;;;5008995;28;20046;-75
2021/12/15 05:51:40;;;;;;;39.65;16.10;;;;;;;;;;5000668;28;20070;-75
2021/12/15 05:54:08;;;;;;;36.83;16.20;;;;;;;;;;5005265;28;20080;-75
2021/12/15 05:56:40;;;;;;;33.92;14.32;;;;;;;;;;4986309;28;20482;-75
2021/12/15 05:59:07;;;;;;;43.53;16.50;;;;;;;;;;5009203;28;20066;-75
2021/12/15 06:01:35;;;;;;;39.92;16.00;;;;;;;;;;5001133;28;20144;-75
2021/12/15 06:04:03;;;;;;;32.95;15.18;;;;;;;;;;5003459;28;20502;-75
2021/12/15 06:06:31;;;;;;;36.95;14.80;;;;;;;;;;4998024;28;20104;-75
2021/12/15 06:08:59;;;;;;;35.35;14.70;;;;;;;;;;4994624;28;20088;-76
2021/12/15 06:11:27;;;;;;;28.90;14.07;;;;;;;;;;5004151;28;20072;-76
2021/12/15 06:13:54;;;;;;;18.38;11.75;;;;;;;;;;4986737;28;20113;-75
2021/12/15 06:16:22;;;;;;;30.02;14.52;;;;;;;;;;5002611;28;20108;-75
2021/12/15 06:18:51;;;;;;;27.58;14.23;;;;;;;;;;4997682;28;20034;-75
2021/12/15 06:21:20;;;;;;;29.58;13.50;;;;;;;;;;4998083;28;20061;-76
2021/12/15 06:23:48;;;;;;;32.17;13.45;;;;;;;;;;4998253;28;20579;-76
2021/12/15 06:26:17;;;;;;;28.48;13.10;;;;;;;;;;4985749;28;20050;-75
2021/12/15 06:28:45;;;;;;;29.90;13.95;;;;;;;;;;5000084;28;20073;-76
2021/12/15 06:31:14;;;;;;;37.42;15.02;;;;;;;;;;4971783;28;20057;-76
2021/12/15 06:33:42;;;;;;;30.15;13.18;;;;;;;;;;5020585;28;20520;-76
2021/12/15 06:36:13;;;;;;;31.45;13.50;;;;;;;;;;4994644;28;20050;-76
2021/12/15 06:38:45;;;;;;;37.53;14.40;;;;;;;;;;4991967;28;20326;-76
2021/12/15 06:41:14;;;;;;;26.48;12.88;;;;;;;;;;4970114;28;20054;-76
2021/12/15 06:43:44;;;;;;;41.67;15.43;;;;;;;;;;5005621;28;20065;-75
2021/12/15 06:57:32;;;;;;;41.38;14.73;;;;;;;;;;4971292;28;20045;-76
2021/12/15 07:00:00;;;;;;;35.65;13.68;;;;;;;;;;5005479;28;20069;-75
2021/12/15 07:02:27;;;;;;;35.83;14.40;;;;;;;;;;4955580;28;20119;-77
2021/12/15 07:04:55;;;;;;;34.00;14.05;;;;;;;;;;4965459;28;20042;-76
2021/12/15 07:07:23;;;;;;;26.85;13.50;;;;;;;;;;4964436;28;20047;-77
2021/12/15 07:09:50;;;;;;;55.85;15.18;;;;;;;;;;4958146;28;20122;-75
2021/12/15 07:12:17;;;;;;;38.33;15.43;;;;;;;;;;4959024;28;20075;-75
2021/12/15 07:14:45;;;;;;;34.80;13.07;;;;;;;;;;4943904;28;20126;-75
2021/12/15 07:17:20;;;;;;;39.08;14.13;;;;;;;;;;4957783;28;20039;-76
2021/12/15 07:24:58;;;;;;;37.20;14.00;;;;;;;;;;4960048;28;20161;-76
2021/12/15 07:27:26;;;;;;;37.03;14.00;;;;;;;;;;4954371;28;20166;-76
2021/12/15 07:29:53;;;;;;;46.47;14.80;;;;;;;;;;4940036;29;20086;-76
2021/12/15 07:32:21;;;;;;;52.20;14.55;;;;;;;;;;4948768;28;20666;-75
2021/12/15 07:34:48;;;;;;;43.08;14.45;;;;;;;;;;4990099;28;20121;-75
2021/12/15 07:37:15;;;;;;;41.88;14.75;;;;;;;;;;4979127;28;20593;-75
2021/12/15 07:39:54;;;;;;;46.65;15.40;;;;;;;;;;4987909;28;20356;-75
2021/12/15 07:42:30;;;;;;;35.10;13.68;;;;;;;;;;4998080;28;20156;-75
2021/12/15 07:44:59;;;;;;;37.30;14.73;;;;;;;;;;5002858;28;20049;-74
2021/12/15 07:47:26;;;;;;;38.30;14.70;;;;;;;;;;4989966;28;20061;-75
2021/12/15 07:49:54;;;;;;;37.00;14.35;;;;;;;;;;5002971;28;20080;-75
2021/12/15 07:52:21;;;;;;;42.67;15.23;;;;;;;;;;4998626;28;20120;-76
2021/12/15 07:54:48;;;;;;;35.83;13.23;;;;;;;;;;5010016;28;20068;-76
2021/12/15 07:57:18;;;;;;;34.38;13.38;;;;;;;;;;5005024;28;20080;-76
2021/12/15 07:59:46;;;;;;;29.40;12.60;;;;;;;;;;5001798;28;20549;-76
2021/12/15 08:02:13;;;;;;;36.20;14.07;;;;;;;;;;5005671;28;20578;-76
2021/12/15 08:04:41;;;;;;;34.47;13.93;;;;;;;;;;5007828;28;20041;-76
2021/12/15 08:07:09;;;;;;;38.38;14.63;;;;;;;;;;4984823;28;20052;-76
2021/12/15 08:09:36;;;;;;;35.65;14.55;;;;;;;;;;4968109;28;20103;-76
2021/12/15 08:12:04;;;;;;;45.65;17.00;;;;;;;;;;4955110;28;20070;-76
2021/12/15 08:14:32;;;;;;;48.28;16.90;;;;;;;;;;4967002;28;20113;-76
2021/12/15 08:16:59;;;;;;;33.22;14.82;;;;;;;;;;4950028;28;20130;-76
2021/12/15 08:19:27;;;;;;;50.30;17.50;;;;;;;;;;4965045;28;20047;-76
2021/12/15 08:21:54;;;;;;;35.42;14.95;;;;;;;;;;4965418;28;20467;-76
2021/12/15 08:24:22;;;;;;;32.40;15.13;;;;;;;;;;4965134;28;20470;-76
2021/12/15 08:26:49;;;;;;;32.40;14.48;;;;;;;;;;4963773;28;20043;-76
2021/12/15 08:29:16;;;;;;;35.17;14.48;;;;;;;;;;4950788;28;20630;-76
2021/12/15 08:31:44;;;;;;;26.63;14.13;;;;;;;;;;4966694;28;20172;-75
2021/12/15 08:34:12;;;;;;;33.03;14.68;;;;;;;;;;4926813;29;20484;-76
2021/12/15 08:36:40;;;;;;;34.55;14.20;;;;;;;;;;4938370;29;20071;-76
2021/12/15 08:39:08;;;;;;;31.55;14.05;;;;;;;;;;4925190;29;20068;-76
2021/12/15 08:41:36;;;;;;;38.80;15.55;;;;;;;;;;4953148;28;20063;-75
2021/12/15 08:44:08;;;;;;;36.15;14.38;;;;;;;;;;4953319;28;20113;-75
2021/12/15 08:46:39;;;;;;;39.35;15.23;;;;;;;;;;4957825;28;20077;-76
2021/12/15 08:49:09;;;;;;;32.07;14.27;;;;;;;;;;4943218;28;20063;-76
2021/12/15 08:51:36;;;;;;;31.65;14.43;;;;;;;;;;4942300;28;20510;-76
2021/12/15 08:54:05;;;;;;;47.42;16.95;;;;;;;;;;4944086;29;20044;-75
2021/12/15 08:56:34;;;;;;;38.63;15.68;;;;;;;;;;4949488;29;20051;-75
2021/12/15 08:59:01;;;;;;;31.02;14.82;;;;;;;;;;4915845;28;20046;-78
2021/12/15 09:01:29;;;;;;;39.30;15.57;;;;;;;;;;4956082;28;20047;-75
2021/12/15 09:03:57;;;;;;;36.65;15.95;;;;;;;;;;4912538;29;20437;-76
2021/12/15 09:06:25;;;;;;;32.78;15.30;;;;;;;;;;5006372;28;20046;-77
2021/12/15 09:08:52;;;;;;;32.90;15.07;;;;;;;;;;5007344;28;20084;-76
2021/12/15 09:11:21;;;;;;;26.23;14.30;;;;;;;;;;4984228;28;20078;-75
2021/12/15 09:13:52;;;;;;;32.95;14.82;;;;;;;;;;4992513;28;20450;-76
2021/12/15 09:16:20;;;;;;;25.55;13.55;;;;;;;;;;5005554;28;20073;-76
2021/12/15 09:18:48;;;;;;;27.60;14.32;;;;;;;;;;5005668;28;20048;-75
2021/12/15 09:21:17;;;;;;;23.55;13.13;;;;;;;;;;4983347;28;20120;-76
2021/12/15 09:23:44;;;;;;;24.73;13.10;;;;;;;;;;5007491;28;20070;-76
2021/12/15 09:26:12;;;;;;;32.20;13.77;;;;;;;;;;4997903;28;20081;-75
2021/12/15 09:28:39;;;;;;;30.10;14.23;;;;;;;;;;4993406;28;20096;-75
2021/12/15 09:31:08;;;;;;;28.63;13.63;;;;;;;;;;5004398;28;20092;-75
2021/12/15 09:33:38;;;;;;;29.10;14.13;;;;;;;;;;5010187;28;20045;-75
2021/12/15 09:36:06;;;;;;;22.00;12.73;;;;;;;;;;4991916;28;20057;-75
2021/12/15 09:38:34;;;;;;;32.85;15.25;;;;;;;;;;4988941;28;20510;-75
2021/12/15 09:41:08;;;;;;;28.98;15.38;;;;;;;;;;4973243;28;20046;-76
2021/12/15 09:43:36;;;;;;;30.10;14.85;;;;;;;;;;4978097;28;20046;-76
2021/12/15 09:46:13;;;;;;;28.15;13.95;;;;;;;;;;5003950;28;20132;-76
2021/12/15 10:05:11;;;;;;;26.23;13.65;;;;;;;;;;4991842;28;20045;-76
2021/12/15 10:18:59;;;;;;;28.45;14.38;;;;;;;;;;4985918;28;20034;-78
2021/12/15 10:21:33;;;;;;;27.50;13.68;;;;;;;;;;4984948;28;20113;-79
2021/12/15 10:24:00;;;;;;;27.00;13.80;;;;;;;;;;4990073;28;20065;-76
2021/12/15 10:26:29;;;;;;;22.98;12.98;;;;;;;;;;5008740;28;20411;-76
2021/12/15 10:28:57;;;;;;;23.10;12.80;;;;;;;;;;4989814;28;20076;-77
2021/12/15 10:31:29;;;;;;;24.38;14.05;;;;;;;;;;4992272;28;20045;-75
2021/12/15 10:33:58;;;;;;;26.92;14.93;;;;;;;;;;5025148;28;20534;-76
2021/12/15 10:36:27;;;;;;;24.58;13.52;;;;;;;;;;4987366;28;20068;-75
2021/12/15 10:38:58;;;;;;;22.88;12.77;;;;;;;;;;5002235;28;20037;-76
2021/12/15 10:41:33;;;;;;;21.13;12.95;;;;;;;;;;5009236;28;20052;-75
2021/12/15 10:44:03;;;;;;;22.40;12.95;;;;;;;;;;4990922;28;20049;-75
2021/12/15 10:46:31;;;;;;;23.10;13.25;;;;;;;;;;5007338;28;20038;-77
2021/12/15 10:49:01;;;;;;;21.88;13.65;;;;;;;;;;5013965;28;20033;-75
2021/12/15 10:51:38;;;;;;;22.38;12.80;;;;;;;;;;5007525;28;20076;-75
2021/12/15 10:54:07;;;;;;;19.80;12.50;;;;;;;;;;5007361;28;20045;-75
2021/12/15 10:56:36;;;;;;;22.17;12.82;;;;;;;;;;4975216;28;20088;-76
2021/12/15 10:59:10;;;;;;;22.05;12.07;;;;;;;;;;5005634;28;20041;-75
2021/12/15 11:01:46;;;;;;;21.33;12.63;;;;;;;;;;5006268;28;20042;-76
2021/12/15 11:04:26;;;;;;;21.85;13.35;;;;;;;;;;5005887;28;20034;-77
2021/12/15 11:07:09;;;;;;;23.67;13.80;;;;;;;;;;4979031;28;20447;-75
2021/12/15 11:09:47;;;;;;;23.85;13.70;;;;;;;;;;5003590;28;20038;-77
2021/12/15 11:12:23;;;;;;;22.42;13.38;;;;;;;;;;4982576;28;20129;-77
2021/12/15 11:14:53;;;;;;;22.33;12.80;;;;;;;;;;5003312;28;20470;-77
2021/12/15 11:17:28;;;;;;;20.70;12.23;;;;;;;;;;4972424;28;20225;-76
2021/12/15 11:19:59;;;;;;;20.83;12.77;;;;;;;;;;4988371;28;20124;-75
2021/12/15 11:22:39;;;;;;;21.45;12.95;;;;;;;;;;5003577;28;20053;-76
2021/12/15 11:25:19;;;;;;;24.52;13.85;;;;;;;;;;4943944;28;20043;-76
2021/12/15 11:27:51;;;;;;;23.15;13.18;;;;;;;;;;4958557;28;20046;-76
2021/12/15 11:30:18;;;;;;;;;;;;;;;;;;4957365;28;20050;-76
2021/12/15 11:32:47;;;;;;;18.65;11.98;;;;;;;;;;4953912;28;19922;-76
2021/12/15 11:35:21;;;;;;;20.38;12.15;;;;;;;;;;4953704;28;20075;-76
2021/12/15 11:38:09;;;;;;;22.70;12.73;;;;;;;;;;4962136;28;20590;-74
2021/12/15 11:40:41;;;;;;;21.75;12.50;;;;;;;;;;4931451;28;20045;-75
2021/12/15 11:43:09;;;;;;;19.20;11.77;;;;;;;;;;4960149;28;20621;-75
2021/12/15 11:45:41;;;;;;;19.23;12.25;;;;;;;;;;4945505;28;20059;-76
2021/12/15 11:48:16;;;;;;;18.52;12.32;;;;;;;;;;4958973;28;20106;-75
2021/12/15 11:50:44;;;;;;;17.30;11.63;;;;;;;;;;4965289;28;20111;-75
2021/12/15 11:53:21;;;;;;;19.35;11.60;;;;;;;;;;4958737;28;20137;-75
2021/12/15 11:55:50;;;;;;;18.45;11.88;;;;;;;;;;4976614;28;20067;-76
2021/12/15 11:58:28;;;;;;;18.25;11.55;;;;;;;;;;4986773;28;20038;-81
2021/12/15 12:00:56;;;;;;;20.83;12.80;;;;;;;;;;5005516;28;20041;-78
2021/12/15 12:03:23;;;;;;;17.58;10.63;;;;;;;;;;5002401;28;20266;-79
2021/12/15 12:05:51;;;;;;;18.85;12.30;;;;;;;;;;5010669;28;20045;-81
2021/12/15 12:08:18;;;;;;;18.20;12.13;;;;;;;;;;5007628;28;20077;-78
2021/12/15 12:10:49;;;;;;;16.35;11.40;;;;;;;;;;4994484;28;20054;-78
2021/12/15 12:13:24;;;;;;;15.52;10.68;;;;;;;;;;4976999;28;20456;-79
2021/12/15 12:15:54;;;;;;;13.95;10.40;;;;;;;;;;4997436;28;20577;-79
2021/12/15 12:18:22;;;;;;;17.27;11.70;;;;;;;;;;5006315;28;20035;-78
2021/12/15 12:20:51;;;;;;;20.13;12.50;;;;;;;;;;4991767;28;20097;-80
2021/12/15 12:23:20;;;;;;;15.45;10.40;;;;;;;;;;5010536;28;20096;-80
2021/12/15 12:25:49;;;;;;;17.65;11.07;;;;;;;;;;4989155;28;20145;-76
2021/12/15 12:28:18;;;;;;;16.90;11.05;;;;;;;;;;5007759;28;20490;-75
2021/12/15 12:30:49;;;;;;;14.88;10.13;;;;;;;;;;4982676;28;20042;-76
2021/12/15 12:33:18;;;;;;;15.30;10.88;;;;;;;;;;4983854;28;20077;-76
2021/12/15 12:35:53;;;;;;;17.17;10.80;;;;;;;;;;5008015;28;20493;-76
2021/12/15 12:38:22;;;;;;;17.00;12.05;;;;;;;;;;5006404;28;20092;-76
2021/12/15 12:40:53;;;;;;;16.42;11.40;;;;;;;;;;5010287;28;20481;-75
2021/12/15 12:43:31;;;;;;;16.42;10.75;;;;;;;;;;4987135;28;20070;-75
2021/12/15 13:01:16;;;;;;;17.17;11.50;;;;;;;;;;4980890;28;20413;-75
2021/12/15 13:03:48;;;;;;;23.40;11.80;;;;;;;;;;4976119;28;20049;-74
2021/12/15 13:06:21;;;;;;;18.45;11.77;;;;;;;;;;4984327;28;20701;-74
2021/12/15 13:08:55;;;;;;;18.35;11.48;;;;;;;;;;4972428;28;20168;-73
2021/12/15 13:11:33;;;;;;;20.15;11.07;;;;;;;;;;4990537;28;20398;-74
2021/12/15 13:14:04;;;;;;;19.83;12.32;;;;;;;;;;4970355;28;20620;-74
2021/12/15 13:16:37;;;;;;;16.98;11.48;;;;;;;;;;4968456;28;20053;-74
2021/12/15 13:19:24;;;;;;;17.80;11.82;;;;;;;;;;4962124;28;20044;-74
2021/12/15 13:30:38;;;;;;;18.73;11.93;;;;;;;;;;4989357;28;20187;-74
2021/12/15 13:33:13;;;;;;;24.48;13.52;;;;;;;;;;4970604;28;20049;-74
2021/12/15 13:35:43;;;;;;;22.05;13.43;;;;;;;;;;5002405;28;20194;-74
2021/12/15 13:38:11;;;;;;;19.85;13.10;;;;;;;;;;4989832;28;20092;-74
2021/12/15 13:40:50;;;;;;;21.52;13.05;;;;;;;;;;4974770;28;20046;-74
2021/12/15 13:43:36;;;;;;;23.58;13.82;;;;;;;;;;5013909;28;20413;-74
2021/12/15 13:46:06;;;;;;;22.17;12.80;;;;;;;;;;4961360;28;20049;-74
2021/12/15 13:48:52;;;;;;;21.92;12.98;;;;;;;;;;4989682;28;20073;-74
2021/12/15 13:51:39;;;;;;;22.00;14.15;;;;;;;;;;4975189;28;20152;-74
2021/12/15 13:54:29;;;;;;;23.13;14.55;;;;;;;;;;4961206;28;20045;-75
2021/12/15 13:56:57;;;;;;;29.58;17.13;;;;;;;;;;5004506;28;20046;-74
2021/12/15 13:59:54;;;;;;;32.17;16.80;;;;;;;;;;4990135;28;20034;-74
2021/12/15 14:27:47;;;;;;;21.80;14.05;;;;;;;;;;5172807;24;20061;-74
2021/12/15 14:30:17;;;;;;;24.60;15.07;;;;;;;;;;4825687;29;20061;-75
2021/12/15 14:32:45;;;;;;;19.25;13.80;;;;;;;;;;4836561;29;20149;-75
2021/12/15 14:35:19;;;;;;;20.77;14.05;;;;;;;;;;4836801;29;20042;-75
2021/12/15 14:37:46;;;;;;;21.60;13.95;;;;;;;;;;4816598;29;20046;-74
2021/12/15 14:40:14;;;;;;;19.52;13.57;;;;;;;;;;4784985;29;20085;-75
2021/12/15 14:42:46;;;;;;;20.00;12.75;;;;;;;;;;4785992;29;20109;-74
2021/12/15 14:45:14;;;;;;;19.48;13.52;;;;;;;;;;4818094;29;20574;-74
2021/12/15 14:47:44;;;;;;;20.10;13.50;;;;;;;;;;4821394;29;20061;-74
2021/12/15 14:50:13;;;;;;;19.40;13.80;;;;;;;;;;4818249;29;20472;-74
2021/12/15 14:52:42;;;;;;;24.80;14.13;;;;;;;;;;4813563;29;20401;-75
2021/12/15 14:55:12;;;;;;;21.08;14.02;;;;;;;;;;4788178;29;20051;-75
2021/12/15 14:57:58;;;;;;;23.95;14.38;;;;;;;;;;4816905;29;20047;-75
2021/12/15 15:00:31;;;;;;;22.52;13.98;;;;;;;;;;4816972;29;20059;-74
2021/12/15 15:03:03;;;;;;;22.08;14.30;;;;;;;;;;4818394;29;20527;-74
2021/12/15 15:05:31;;;;;;;21.77;13.95;;;;;;;;;;4818827;29;20512;-75
2021/12/15 15:08:01;;;;;;;20.48;14.15;;;;;;;;;;4820146;29;20102;-75
2021/12/15 15:10:31;;;;;;;26.13;15.30;;;;;;;;;;4821132;29;20129;-74
2021/12/15 15:13:00;;;;;;;22.60;14.90;;;;;;;;;;4821181;29;20070;-75
2021/12/15 15:15:31;;;;;;;17.92;12.93;;;;;;;;;;4820930;29;20342;-75
2021/12/15 15:18:01;;;;;;;20.20;13.93;;;;;;;;;;4815966;29;20062;-75
2021/12/15 15:20:31;;;;;;;18.58;12.80;;;;;;;;;;4815211;29;20111;-75
2021/12/15 15:23:00;;;;;;;18.23;12.95;;;;;;;;;;4812721;29;20166;-74
2021/12/15 15:25:29;;;;;;;20.08;13.65;;;;;;;;;;4813995;29;20530;-75
2021/12/15 15:27:59;;;;;;;20.52;12.98;;;;;;;;;;4820157;29;20533;-75
2021/12/15 15:30:28;;;;;;;21.17;13.27;;;;;;;;;;4820463;29;20042;-75
2021/12/15 15:32:57;;;;;;;21.05;14.65;;;;;;;;;;4821026;29;20194;-75
2021/12/15 15:35:33;;;;;;;22.45;14.65;;;;;;;;;;4820783;29;20241;-75
2021/12/15 15:38:04;;;;;;;19.33;13.18;;;;;;;;;;4821227;29;20137;-74
2021/12/15 15:40:42;;;;;;;19.55;14.02;;;;;;;;;;4819657;29;20049;-75
2021/12/15 15:43:17;;;;;;;18.85;12.88;;;;;;;;;;4812922;29;20133;-74
2021/12/15 15:45:46;;;;;;;20.92;14.60;;;;;;;;;;4819164;29;20130;-75
2021/12/15 15:48:19;;;;;;;19.25;13.90;;;;;;;;;;4826682;29;20072;-75
2021/12/15 15:50:49;;;;;;;18.98;14.05;;;;;;;;;;4819403;29;20050;-75
2021/12/15 15:53:17;;;;;;;24.25;15.13;;;;;;;;;;4820032;29;20053;-75
2021/12/15 15:55:46;;;;;;;26.33;15.50;;;;;;;;;;4818568;29;20588;-75
2021/12/15 15:58:14;;;;;;;22.67;14.65;;;;;;;;;;4819248;29;20084;-75
2021/12/15 16:00:47;;;;;;;21.17;14.70;;;;;;;;;;4818692;29;20045;-74
2021/12/15 16:03:21;;;;;;;21.30;14.70;;;;;;;;;;4810785;29;20053;-75
2021/12/15 16:05:49;;;;;;;27.33;16.77;;;;;;;;;;4811788;29;20103;-74
2021/12/15 16:08:17;;;;;;;24.75;16.02;;;;;;;;;;4811860;29;20046;-75
2021/12/15 16:10:45;;;;;;;23.13;16.25;;;;;;;;;;4812221;29;20050;-75
2021/12/15 16:13:15;;;;;;;21.50;14.77;;;;;;;;;;4817436;29;20546;-75
2021/12/15 16:15:46;;;;;;;23.08;15.15;;;;;;;;;;4799095;29;20273;-75
2021/12/15 16:18:24;;;;;;;21.75;14.10;;;;;;;;;;4803021;29;20046;-74
2021/12/15 16:23:29;;;;;;;17.52;12.98;;;;;;;;;;4807576;29;20182;-75
2021/12/15 16:25:57;;;;;;;15.53;12.97;;;;;;;;;;4814895;29;20069;-75
2021/12/15 16:28:25;;;;;;;17.40;13.02;;;;;;;;;;4817529;29;20465;-75
2021/12/15 16:30:53;;;;;;;18.27;13.65;;;;;;;;;;4820708;29;20046;-75
2021/12/15 16:33:23;;;;;;;20.20;13.13;;;;;;;;;;4819082;29;20125;-74
2021/12/15 16:35:51;;;;;;;16.80;12.50;;;;;;;;;;4815805;29;20133;-75
2021/12/15 16:38:26;;;;;;;17.05;13.00;;;;;;;;;;4817876;29;20074;-75
2021/12/15 16:40:56;;;;;;;20.92;14.48;;;;;;;;;;4812701;29;20086;-75
2021/12/15 16:43:24;;;;;;;23.02;14.43;;;;;;;;;;4808954;29;20054;-75